ADDS METAR Data INFO
IDs: Format: Raw Decoded Include TAF

Data at: 1838 UTC 17 Oct 2017

KTQH 171815Z AUTO 16006KT 10SM CLR 21/06 A3027 RMK AO2
KTQH 171755Z AUTO 17006KT 10SM CLR 20/05 A3029 RMK AO2
KTQH 171735Z AUTO 21007KT 10SM CLR 20/06 A3030 RMK AO2
KTQH 171715Z AUTO 20007KT 10SM CLR 20/06 A3031 RMK AO2
KTQH 171655Z AUTO 17007KT 10SM CLR 19/06 A3031 RMK AO2
KTQH 171635Z AUTO 15007KT 10SM CLR 18/06 A3032 RMK AO2
KTQH 171615Z AUTO 17008KT 10SM CLR 17/07 A3033 RMK AO2
KTQH 171555Z AUTO 15006KT 10SM CLR 15/07 A3032 RMK AO2
KTQH 171535Z AUTO 16006KT 10SM CLR 15/07 A3032 RMK AO2
KTQH 171515Z AUTO 13004KT 10SM CLR 13/08 A3033 RMK AO2
KTQH 171455Z AUTO 13004KT 10SM CLR 12/08 A3033 RMK AO2
KTQH 171435Z AUTO 00000KT 10SM CLR 11/10 A3033 RMK AO2
KTQH 171415Z AUTO 00000KT 10SM CLR 10/09 A3032 RMK AO2
KTQH 171355Z AUTO 00000KT 10SM CLR 08/08 A3031 RMK AO2
KTQH 171335Z AUTO 00000KT 10SM CLR 06/06 A3031 RMK AO2
KTQH 171315Z AUTO 00000KT 7SM CLR 04/03 A3031 RMK AO2
KTQH 171255Z AUTO 00000KT 10SM CLR 03/03 A3030 RMK AO2
KTQH 171235Z AUTO 00000KT 10SM CLR 03/03 A3030 RMK AO2
KTQH 171215Z AUTO 00000KT 10SM CLR 03/03 A3030 RMK AO2
KTQH 171155Z AUTO 00000KT 10SM CLR 02/02 A3030 RMK AO2
KTQH 171135Z AUTO 00000KT 10SM CLR 02/02 A3030 RMK AO2
KTQH 171115Z AUTO 00000KT 10SM CLR 02/02 A3030 RMK AO2
KTQH 171055Z AUTO 00000KT 02/02 A3030 RMK AO2 PWINO
KTQH 171035Z AUTO 00000KT 10SM CLR 03/03 A3029 RMK AO2
KTQH 171015Z AUTO 00000KT 10SM CLR 03/03 A3030 RMK AO2
KTQH 170955Z AUTO 00000KT 10SM CLR 03/03 A3029 RMK AO2
KTQH 170935Z AUTO 00000KT 10SM CLR 03/03 A3029 RMK AO2
KTQH 170915Z AUTO 00000KT 10SM CLR 03/03 A3029 RMK AO2
KTQH 170855Z AUTO 00000KT 10SM CLR 03/03 A3029 RMK AO2
KTQH 170835Z AUTO 00000KT 10SM CLR 03/03 A3030 RMK AO2
KTQH 170815Z AUTO 00000KT 10SM CLR 03/03 A3030 RMK AO2
KTQH 170755Z AUTO 00000KT 10SM CLR 03/03 A3030 RMK AO2
KTQH 170735Z AUTO 00000KT 10SM CLR 03/03 A3030 RMK AO2
KTQH 170715Z AUTO 00000KT 10SM CLR 03/03 A3030 RMK AO2
KTQH 170655Z AUTO 00000KT 10SM CLR 04/03 A3030 RMK AO2
KTQH 170635Z AUTO 00000KT 10SM CLR 03/03 A3030 RMK AO2
KTQH 170615Z AUTO 00000KT 10SM CLR 04/03 A3030 RMK AO2
KTQH 170555Z AUTO 00000KT 7SM CLR 04/03 A3030 RMK AO2
KTQH 170535Z AUTO 00000KT 10SM CLR 05/04 A3031 RMK AO2
KTQH 170515Z AUTO 00000KT 10SM CLR 05/05 A3030 RMK AO2
KTQH 170455Z AUTO 00000KT 10SM CLR 05/04 A3030 RMK AO2
KTQH 170435Z AUTO 00000KT 10SM CLR 05/05 A3030 RMK AO2
KTQH 170415Z AUTO 00000KT 10SM CLR 06/05 A3031 RMK AO2
KTQH 170355Z AUTO 00000KT 10SM CLR 06/05 A3031 RMK AO2
KTQH 170335Z AUTO 00000KT 10SM CLR 06/05 A3031 RMK AO2
KTQH 170315Z AUTO 00000KT 10SM CLR 06/06 A3031 RMK AO2
KTQH 170255Z AUTO 00000KT 10SM CLR 06/05 A3031 RMK AO2
KTQH 170235Z AUTO 00000KT 10SM CLR 07/06 A3030 RMK AO2
KTQH 170215Z AUTO 00000KT 1 3/4SM BR VV007 07/06 A3031 RMK AO2 VIS 1/4V5
KTQH 170155Z AUTO 00000KT 10SM CLR 07/06 A3031 RMK AO2
KTQH 170135Z AUTO 00000KT 10SM CLR 08/06 A3031 RMK AO2
KTQH 170115Z AUTO 00000KT 10SM CLR 08/06 A3031 RMK AO2
KTQH 170055Z AUTO 00000KT 10SM CLR 10/07 A3031 RMK AO2
KTQH 170035Z AUTO 00000KT 10SM CLR 11/07 A3030 RMK AO2
KTQH 170015Z AUTO 00000KT 10SM CLR 12/07 A3030 RMK AO2
KTQH 162355Z AUTO 00000KT 7SM CLR 15/06 A3029 RMK AO2
KTQH 162335Z AUTO 00000KT 5SM HZ CLR 17/03 A3029 RMK AO2
KTQH 162315Z AUTO 00000KT 7SM CLR 18/03 A3030 RMK AO2
KTQH 162255Z AUTO 00000KT 5SM HZ CLR 20/02 A3030 RMK AO2
KTQH 162235Z AUTO 00000KT 10SM CLR 21/03 A3030 RMK AO2
KTQH 162215Z AUTO 06004KT 10SM CLR 21/03 A3031 RMK AO2
KTQH 162155Z AUTO 00000KT 10SM CLR 21/02 A3031 RMK AO2
KTQH 162135Z AUTO 00000KT 4SM HZ CLR 21/03 A3031 RMK AO2
KTQH 162115Z AUTO 00000KT 4SM HZ CLR 22/03 A3032 RMK AO2
KTQH 162055Z AUTO 00000KT 10SM CLR 22/03 A3032 RMK AO2
KTQH 162035Z AUTO 08003KT 10SM CLR 22/03 A3033 RMK AO2
KTQH 162015Z AUTO 00000KT 10SM CLR 22/03 A3034 RMK AO2
KTQH 161955Z AUTO 00000KT 10SM CLR 22/03 A3034 RMK AO2
KTQH 161935Z AUTO 07005KT 10SM CLR 21/03 A3036 RMK AO2
KTQH 161915Z AUTO 06005KT 7SM CLR 21/03 A3037 RMK AO2
KTQH 161855Z AUTO 06007KT 020V090 10SM CLR 21/03 A3038 RMK AO2
KTQH 161835Z AUTO 09005KT 10SM CLR 20/03 A3039 RMK AO2
KTQH 161815Z AUTO 14003KT 10SM CLR 20/03 A3041 RMK AO2
KTQH 161755Z AUTO 07007KT 10SM CLR 20/03 A3042 RMK AO2
KTQH 161735Z AUTO 00000KT 10SM CLR 19/03 A3043 RMK AO2
KTQH 161715Z AUTO 14004KT 10SM CLR 18/03 A3043 RMK AO2
KTQH 161655Z AUTO 00000KT 10SM CLR 18/03 A3044 RMK AO2
KTQH 161635Z AUTO 00000KT 10SM CLR 17/03 A3045 RMK AO2
KTQH 161615Z AUTO 00000KT 10SM CLR 16/04 A3045 RMK AO2
KTQH 161555Z AUTO 00000KT 10SM CLR 15/05 A3045 RMK AO2
KTQH 161535Z AUTO 10004KT 10SM CLR 15/05 A3045 RMK AO2
KTQH 161515Z AUTO 00000KT 10SM CLR 13/06 A3045 RMK AO2
KTQH 161455Z AUTO 00000KT 10SM CLR 13/07 A3045 RMK AO2
KTQH 161435Z AUTO 00000KT 10SM CLR 12/07 A3044 RMK AO2
KTQH 161415Z AUTO 00000KT 10SM CLR 11/08 A3044 RMK AO2
KTQH 161355Z AUTO 00000KT 10SM CLR 09/07 A3044 RMK AO2
KTQH 161335Z AUTO 00000KT 10SM CLR 07/06 A3043 RMK AO2
KTQH 161315Z AUTO 00000KT 10SM CLR 05/04 A3043 RMK AO2
KTQH 161255Z AUTO 00000KT 10SM CLR 03/02 A3043 RMK AO2
KTQH 161235Z AUTO 00000KT 10SM CLR 02/02 A3042 RMK AO2
KTQH 161215Z AUTO 00000KT 10SM CLR 02/02 A3042 RMK AO2
KTQH 161155Z AUTO 00000KT 10SM CLR 02/02 A3042 RMK AO2
KTQH 161135Z AUTO 00000KT 10SM CLR 02/02 A3042 RMK AO2
KTQH 161115Z AUTO 00000KT 10SM CLR 03/02 A3041 RMK AO2
KTQH 161055Z AUTO 00000KT 10SM CLR 03/03 A3041 RMK AO2
KTQH 161035Z AUTO 00000KT 10SM CLR 03/03 A3040 RMK AO2
KTQH 161015Z AUTO 00000KT 10SM CLR 04/03 A3040 RMK AO2
KTQH 160955Z AUTO 00000KT 10SM CLR 03/03 A3040 RMK AO2
KTQH 160935Z AUTO 00000KT 10SM CLR 03/02 A3040 RMK AO2
KTQH 160915Z AUTO 00000KT 10SM CLR 03/03 A3040 RMK AO2
KTQH 160855Z AUTO 00000KT 10SM CLR 03/03 A3040 RMK AO2
KTQH 160835Z AUTO 00000KT 10SM CLR 03/03 A3040 RMK AO2
KTQH 160815Z AUTO 00000KT 7SM CLR 03/03 A3040 RMK AO2
KTQH 160755Z AUTO 00000KT 10SM CLR 03/03 A3040 RMK AO2
KTQH 160735Z AUTO 00000KT 10SM CLR 04/03 A3040 RMK AO2
KTQH 160715Z AUTO 00000KT 10SM CLR 04/03 A3040 RMK AO2
KTQH 160655Z AUTO 00000KT 10SM CLR 05/03 A3039 RMK AO2